createdAt,value
2022-10-20T05:51:30.779Z,4.40
2022-10-20T05:54:33.788Z,4.40
2022-10-20T05:57:36.475Z,4.18
2022-10-20T06:00:52.373Z,2.97
2022-10-20T06:03:57.670Z,5.18
2022-10-20T06:07:00.283Z,3.75
2022-10-20T06:10:04.822Z,10.73
2022-10-20T06:13:07.552Z,3.28
2022-10-20T06:16:13.041Z,3.35
2022-10-20T06:19:15.726Z,3.83
2022-10-20T06:22:18.787Z,6.25
2022-10-20T06:25:21.402Z,5.15
2022-10-20T06:28:24.671Z,5.28
2022-10-20T06:31:30.473Z,3.47
2022-10-20T06:34:33.382Z,4.18
2022-10-20T06:37:36.035Z,4.60
2022-10-20T06:40:47.018Z,9.52
2022-10-20T06:43:49.752Z,3.95
2022-10-20T06:46:52.888Z,4.20
2022-10-20T06:49:55.859Z,10.48
2022-10-20T06:52:58.858Z,6.75
2022-10-20T06:56:06.328Z,5.25
2022-10-20T06:59:09.301Z,5.25
2022-10-20T07:02:12.393Z,4.20
2022-10-20T07:05:16.055Z,5.93
2022-10-20T07:08:18.822Z,4.97
2022-10-20T07:11:24.747Z,4.57
2022-10-20T07:14:31.555Z,4.60
2022-10-20T07:17:35.422Z,3.53
2022-10-20T07:20:40.077Z,7.50
2022-10-20T07:23:43.963Z,4.40
2022-10-20T07:26:46.699Z,4.28
2022-10-20T07:29:49.951Z,5.10
2022-10-20T07:32:52.688Z,5.10
2022-10-20T07:35:55.987Z,4.80
2022-10-20T07:39:01.627Z,5.75
2022-10-20T07:42:05.241Z,4.85
2022-10-20T07:45:08.406Z,3.75
2022-10-20T07:48:11.434Z,2.75
2022-10-20T08:39:24.665Z,2.83
2022-10-20T08:42:27.754Z,3.17
2022-10-20T08:45:32.731Z,1.58
2022-10-20T08:48:39.183Z,2.75
2022-10-20T08:51:42.554Z,2.30
2022-10-20T08:54:48.589Z,1.90
2022-10-20T08:57:51.384Z,1.60
2022-10-20T09:01:26.313Z,1.62
2022-10-20T09:04:58.652Z,1.90
2022-10-20T09:08:02.184Z,2.15
2022-10-20T09:11:09.277Z,1.52
2022-10-20T09:14:13.041Z,4.32
2022-10-20T09:17:18.020Z,2.40
2022-10-20T09:20:34.319Z,2.15
2022-10-20T09:23:42.129Z,4.47
2022-10-20T09:26:59.069Z,2.83
2022-10-20T09:30:25.906Z,1.98
2022-10-20T09:33:31.710Z,5.65
2022-10-20T09:36:35.912Z,3.10
2022-10-20T09:39:58.379Z,1.85
2022-10-20T09:43:15.417Z,1.67
2022-10-20T09:46:22.709Z,8.85
2022-10-20T09:49:32.126Z,3.03
2022-10-20T09:52:47.790Z,2.08
2022-10-20T09:55:51.624Z,2.28
2022-10-20T09:58:56.548Z,1.83
2022-10-20T10:02:23.166Z,1.70
2022-10-20T10:05:33.479Z,4.05
2022-10-20T10:08:45.737Z,2.78
2022-10-20T10:11:59.570Z,1.60
2022-10-20T10:15:24.941Z,4.37
2022-10-20T10:19:03.153Z,5.32
2022-10-20T10:22:06.370Z,1.92
2022-10-20T10:25:30.813Z,1.75
2022-10-20T10:28:39.257Z,2.58
2022-10-20T10:31:51.690Z,1.83
2022-10-20T10:35:27.720Z,1.50
2022-10-20T10:39:17.198Z,1.50
2022-10-20T10:42:52.718Z,1.75
2022-10-20T10:46:07.214Z,2.83
2022-10-20T10:49:22.034Z,1.98
2022-10-20T10:52:42.731Z,1.65
2022-10-20T10:55:57.410Z,3.33
2022-10-20T10:59:25.069Z,1.75
2022-10-20T11:02:39.607Z,3.05
2022-10-20T11:06:05.894Z,1.50
2022-10-20T11:09:26.240Z,1.55
2022-10-20T11:13:27.039Z,2.37
2022-10-20T11:17:18.553Z,1.60
2022-10-20T11:20:39.901Z,5.60
2022-10-20T11:23:51.501Z,2.67
2022-10-20T11:27:24.329Z,6.93
2022-10-20T11:30:47.771Z,2.75
2022-10-20T11:34:23.319Z,1.50
2022-10-20T11:37:31.451Z,1.85
2022-10-20T11:40:45.021Z,2.47
2022-10-20T11:44:28.593Z,1.60
2022-10-20T11:47:38.806Z,1.60
2022-10-20T11:51:10.793Z,1.62
2022-10-20T11:54:44.779Z,1.98
2022-10-20T11:57:52.375Z,2.03
2022-10-20T12:01:05.183Z,4.00
2022-10-20T12:04:38.174Z,1.62
2022-10-20T12:08:28.934Z,1.60
2022-10-20T12:12:33.860Z,1.95
2022-10-20T12:16:00.525Z,2.35
2022-10-20T12:19:19.312Z,5.35
2022-10-20T12:22:43.236Z,2.10
2022-10-20T12:25:48.059Z,1.50
2022-10-20T12:28:51.735Z,1.42
2022-10-20T12:32:38.011Z,1.95
2022-10-20T12:36:00.603Z,1.80
2022-10-20T12:39:29.746Z,2.25
2022-10-20T12:42:46.547Z,2.72
2022-10-20T12:45:50.938Z,1.85
2022-10-20T12:49:00.096Z,2.45
2022-10-20T12:52:20.007Z,1.65
2022-10-20T12:56:04.921Z,2.70
2022-10-20T12:59:35.075Z,6.40
2022-10-20T13:02:50.741Z,1.70
2022-10-20T13:06:30.873Z,2.62
2022-10-20T13:09:54.854Z,2.85
2022-10-20T13:13:11.103Z,3.12
2022-10-20T13:16:21.283Z,2.58
2022-10-20T13:19:43.077Z,3.25
2022-10-20T13:22:53.698Z,1.95
2022-10-20T13:26:04.248Z,2.08
2022-10-20T13:29:43.196Z,1.70
2022-10-20T13:33:17.892Z,2.05
2022-10-20T13:37:11.990Z,1.70
2022-10-20T13:40:38.976Z,3.17
2022-10-20T13:43:58.273Z,2.17
2022-10-20T13:47:35.679Z,1.95
2022-10-20T13:50:50.032Z,3.83
2022-10-20T13:53:59.219Z,5.65
2022-10-20T13:57:03.749Z,2.28
2022-10-20T14:00:20.457Z,3.28
2022-10-20T15:26:15.019Z,2.90
2022-10-20T15:29:18.848Z,2.70
2022-10-20T15:32:21.757Z,3.70
2022-10-20T15:35:25.217Z,5.60
2022-10-20T15:38:36.863Z,3.83
2022-10-20T15:41:40.865Z,2.58
2022-10-20T15:44:43.930Z,5.47
2022-10-20T15:47:49.646Z,4.87
2022-10-20T15:50:54.418Z,7.70
2022-10-20T15:53:58.775Z,3.87
2022-10-20T15:57:01.815Z,11.50
2022-10-20T16:00:06.484Z,3.03
2022-10-20T16:03:17.137Z,4.62
2022-10-20T16:09:42.917Z,9.45
2022-10-20T16:12:50.892Z,3.40
2022-10-20T16:16:19.641Z,7.95
2022-10-20T16:19:42.520Z,7.03
2022-10-20T16:23:05.325Z,13.70
2022-10-20T16:26:28.474Z,7.85
2022-10-20T16:29:51.060Z,5.35
2022-10-20T16:33:18.499Z,4.45
2022-10-20T16:36:23.138Z,8.05
2022-10-20T17:01:33.772Z,4.45
2022-10-20T17:04:38.427Z,4.03
2022-10-20T17:07:41.404Z,3.70
2022-10-20T17:10:47.679Z,8.52
2022-10-20T17:13:51.629Z,7.55
2022-10-20T17:16:55.045Z,9.00
2022-10-20T17:19:58.063Z,9.25
2022-10-20T17:23:01.196Z,14.57
2022-10-20T17:26:07.080Z,14.82
2022-10-20T17:29:11.273Z,9.65
2022-10-20T17:32:17.436Z,5.68
2022-10-20T17:35:21.670Z,8.95
2022-10-20T17:38:27.532Z,12.65
2022-10-20T17:41:32.438Z,7.87
2022-10-20T17:44:35.335Z,14.82
2022-10-20T17:47:38.461Z,10.38
2022-10-20T17:50:41.378Z,11.20
2022-10-20T17:53:48.080Z,12.82
2022-10-20T17:56:52.518Z,10.70
2022-10-20T17:59:59.350Z,11.85
2022-10-20T18:03:06.217Z,9.43
2022-10-20T18:06:16.860Z,24.70
2022-10-20T18:09:19.760Z,20.25
2022-10-20T18:12:23.321Z,10.13
2022-10-20T18:15:29.149Z,13.52
2022-10-20T18:18:32.726Z,16.52
2022-10-20T18:21:36.335Z,11.80
2022-10-20T18:24:40.034Z,15.13
2022-10-20T18:27:52.395Z,13.07
2022-10-20T18:30:56.739Z,13.13
2022-10-20T18:34:13.540Z,10.70
2022-10-20T18:37:19.411Z,10.40
2022-10-20T18:40:22.437Z,20.88
2022-10-20T18:43:25.628Z,14.23
2022-10-20T18:46:31.221Z,12.07
2022-10-20T18:49:34.394Z,12.95
2022-10-20T18:52:37.271Z,11.50
2022-10-20T18:55:40.596Z,9.57
2022-10-20T19:43:08.717Z,15.27
2022-10-20T19:46:14.518Z,11.02
2022-10-20T19:49:18.453Z,14.63
2022-10-20T19:52:21.762Z,12.82
2022-10-20T19:55:24.588Z,13.25
2022-10-20T19:58:27.789Z,16.73
2022-10-20T20:01:31.224Z,13.25
2022-10-20T20:04:34.412Z,14.23
2022-10-20T20:07:37.497Z,18.67
2022-10-20T20:10:50.481Z,15.15
2022-10-20T20:13:57.059Z,14.82
2022-10-20T20:17:00.230Z,14.68
2022-10-20T20:20:03.882Z,11.85
2022-10-20T20:23:08.234Z,19.20
2022-10-20T20:26:13.913Z,14.90
2022-10-20T20:29:19.345Z,11.45
2022-10-20T20:32:21.924Z,11.23
2022-10-20T20:35:24.709Z,18.02
2022-10-20T20:38:30.123Z,16.10
2022-10-20T20:41:34.223Z,11.68
2022-10-20T20:44:36.751Z,11.52
2022-10-20T20:47:40.271Z,13.68
2022-10-20T20:50:52.090Z,14.82
2022-10-20T20:53:55.763Z,15.27
2022-10-20T20:56:58.347Z,10.50
2022-10-20T21:00:01.225Z,16.55
2022-10-20T21:03:03.911Z,10.40
2022-10-20T21:06:17.288Z,11.07
2022-10-20T21:09:20.114Z,12.75
2022-10-20T21:12:22.906Z,11.90
2022-10-20T21:15:25.362Z,14.57
2022-10-20T21:18:28.098Z,9.65
2022-10-20T21:21:33.702Z,11.05
2022-10-20T21:24:37.034Z,10.65
2022-10-20T21:27:39.581Z,7.50
2022-10-20T21:30:42.351Z,8.38
2022-10-20T21:33:46.274Z,15.38
2022-10-20T21:36:49.213Z,11.48
2022-10-20T21:39:51.798Z,8.80
2022-10-20T23:19:06.682Z,10.13
2022-10-20T23:22:09.607Z,12.57
2022-10-20T23:25:12.214Z,11.00
2022-10-20T23:28:14.999Z,14.90
2022-10-20T23:31:20.713Z,7.40
2022-10-20T23:34:24.227Z,7.75
2022-10-20T23:37:26.835Z,6.70
2022-10-20T23:40:29.905Z,13.60
2022-10-20T23:43:33.034Z,9.65
2022-10-20T23:46:35.971Z,7.05
2022-10-20T23:49:38.674Z,9.45
2022-10-20T23:52:41.571Z,7.80
2022-10-20T23:55:44.290Z,6.62
2022-10-20T23:58:47.177Z,8.25
